createdAt,value
2022-09-04T00:00:13.082Z,5.95
2022-09-04T00:03:02.330Z,5.53
2022-09-04T00:05:48.113Z,5.82
2022-09-04T00:08:21.525Z,5.78
2022-09-04T00:10:52.034Z,5.60
2022-09-04T00:13:24.322Z,5.55
2022-09-04T00:18:59.652Z,5.20
2022-09-04T00:21:33.336Z,5.38
2022-09-04T00:24:08.831Z,5.97
2022-09-04T00:26:42.517Z,5.60
2022-09-04T00:29:21.124Z,6.07
2022-09-04T00:31:59.923Z,6.20
2022-09-04T00:34:42.240Z,6.00
2022-09-04T00:37:16.438Z,6.65
2022-09-04T00:39:55.119Z,5.90
2022-09-04T00:42:25.279Z,6.40
2022-09-04T00:45:18.137Z,6.15
2022-09-04T00:48:16.539Z,5.22
2022-09-04T00:51:11.781Z,5.78
2022-09-04T00:53:42.242Z,5.70
2022-09-04T00:56:40.626Z,5.35
2022-09-04T00:59:11.504Z,5.53
2022-09-04T01:01:39.184Z,6.45
2022-09-04T01:04:31.914Z,5.90
2022-09-04T01:07:33.769Z,6.10
2022-09-04T01:10:01.239Z,5.78
2022-09-04T01:13:02.493Z,5.63
2022-09-04T01:15:50.769Z,5.53
2022-09-04T01:18:32.850Z,5.43
2022-09-04T01:21:06.726Z,5.45
2022-09-04T01:23:42.890Z,5.53
2022-09-04T01:26:32.676Z,5.20
2022-09-04T01:29:28.606Z,5.30
2022-09-04T01:32:09.996Z,5.15
2022-09-04T01:35:05.451Z,5.15
2022-09-04T01:38:09.764Z,4.80
2022-09-04T01:41:07.352Z,5.40
2022-09-04T01:43:34.853Z,5.68
2022-09-04T01:46:14.713Z,5.40
2022-09-04T01:48:59.592Z,5.47
2022-09-04T01:51:41.989Z,5.25
2022-09-04T01:54:22.587Z,5.13
2022-09-04T01:57:15.786Z,5.50
2022-09-04T02:00:14.688Z,5.60
2022-09-04T02:03:08.798Z,4.80
2022-09-04T02:05:48.470Z,5.57
2022-09-04T02:08:50.529Z,5.30
2022-09-04T02:11:56.898Z,5.63
2022-09-04T02:14:34.502Z,5.60
2022-09-04T02:17:36.593Z,6.00
2022-09-04T02:20:27.007Z,5.50
2022-09-04T02:23:26.415Z,5.38
2022-09-04T02:25:58.369Z,5.70
2022-09-04T02:28:56.928Z,5.70
2022-09-04T02:31:24.354Z,6.45
2022-09-04T02:34:00.602Z,5.60
2022-09-04T02:36:50.141Z,6.00
2022-09-04T02:39:50.757Z,5.57
2022-09-04T02:42:26.310Z,5.63
2022-09-04T02:45:31.387Z,5.88
2022-09-04T02:48:14.464Z,6.10
2022-09-04T02:51:00.628Z,5.78
2022-09-04T02:54:04.453Z,5.80
2022-09-04T02:56:58.658Z,5.68
2022-09-04T02:59:47.714Z,5.97
2022-09-04T03:02:31.955Z,5.50
2022-09-04T03:05:12.284Z,5.78
2022-09-04T03:08:20.424Z,5.57
2022-09-04T03:11:15.261Z,6.18
2022-09-04T03:14:09.835Z,6.22
2022-09-04T03:16:55.917Z,6.60
2022-09-04T03:19:39.453Z,6.20
2022-09-04T03:22:28.520Z,6.65
2022-09-04T03:25:14.366Z,6.78
2022-09-04T03:27:41.922Z,5.97
2022-09-04T03:30:14.572Z,5.60
2022-09-04T03:33:05.807Z,5.65
2022-09-04T03:36:01.121Z,5.20
2022-09-04T03:38:48.416Z,5.00
2022-09-04T03:41:40.082Z,5.03
2022-09-04T03:44:23.083Z,5.85
2022-09-04T03:47:08.644Z,5.60
2022-09-04T03:50:10.374Z,5.40
2022-09-04T03:52:57.518Z,5.53
2022-09-04T03:55:43.036Z,4.93
2022-09-04T03:58:26.017Z,5.82
2022-09-04T04:01:05.942Z,5.20
2022-09-04T04:03:51.405Z,5.22
2022-09-04T04:06:40.578Z,5.43
2022-09-04T04:09:16.760Z,5.45
2022-09-04T04:11:46.986Z,5.90
2022-09-04T04:14:37.612Z,6.28
2022-09-04T04:17:40.023Z,6.10
2022-09-04T04:20:24.545Z,6.68
2022-09-04T04:23:04.790Z,5.78
2022-09-04T04:25:35.150Z,5.97
2022-09-04T04:28:12.192Z,5.72
2022-09-04T04:30:53.428Z,5.72
2022-09-04T04:33:26.601Z,6.13
2022-09-04T04:36:20.385Z,6.25
2022-09-04T04:39:10.002Z,6.70
2022-09-04T04:42:05.745Z,6.57
2022-09-04T04:45:21.252Z,6.97
2022-09-04T04:48:16.484Z,6.55
2022-09-04T04:51:09.742Z,6.00
2022-09-04T04:53:37.179Z,7.45
2022-09-04T04:56:24.381Z,6.88
2022-09-04T04:59:20.426Z,6.38
2022-09-04T05:02:08.863Z,7.00
2022-09-04T05:04:36.530Z,7.15
2022-09-04T05:07:14.256Z,8.82
2022-09-04T05:10:08.348Z,9.00
2022-09-04T05:13:06.009Z,8.77
2022-09-04T05:16:05.489Z,11.35
2022-09-04T05:18:45.327Z,8.75
2022-09-04T05:21:38.771Z,8.70
2022-09-04T05:24:14.022Z,8.85
2022-09-04T05:27:10.429Z,8.93
2022-09-04T05:29:59.850Z,8.50
2022-09-04T05:33:14.072Z,8.57
2022-09-04T05:35:58.322Z,9.90
2022-09-04T05:38:55.312Z,8.93
2022-09-04T05:41:30.482Z,8.60
2022-09-04T05:44:09.915Z,7.78
2022-09-04T05:47:14.262Z,7.18
2022-09-04T05:50:08.194Z,7.60
2022-09-04T05:53:40.546Z,8.02
2022-09-04T05:56:35.462Z,8.73
2022-09-04T05:59:32.001Z,8.10
2022-09-04T06:02:27.272Z,8.75
2022-09-04T06:05:04.129Z,8.93
2022-09-04T06:07:37.509Z,7.85
2022-09-04T06:10:28.327Z,8.30
2022-09-04T06:13:29.391Z,7.70
2022-09-04T06:16:23.078Z,8.07
2022-09-04T06:19:08.259Z,8.13
2022-09-04T06:21:38.760Z,7.68
2022-09-04T06:24:24.768Z,8.07
2022-09-04T06:26:57.669Z,7.88
2022-09-04T06:29:54.238Z,7.20
2022-09-04T06:32:40.370Z,7.00
2022-09-04T06:35:33.554Z,6.43
2022-09-04T06:38:15.164Z,6.03
2022-09-04T06:41:10.875Z,6.03
2022-09-04T06:43:44.243Z,5.05
2022-09-04T06:46:42.946Z,5.03
2022-09-04T06:49:24.124Z,5.38
2022-09-04T06:52:15.630Z,4.40
2022-09-04T06:55:01.966Z,4.32
2022-09-04T06:57:52.855Z,5.50
2022-09-04T07:00:20.703Z,6.75
2022-09-04T07:03:11.909Z,5.82
2022-09-04T07:05:55.279Z,5.10
2022-09-04T07:08:32.126Z,4.80
2022-09-04T07:11:15.391Z,3.90
2022-09-04T07:14:23.530Z,4.20
2022-09-04T07:17:04.229Z,3.67
2022-09-04T07:20:00.891Z,3.63
2022-09-04T07:22:31.417Z,3.92
2022-09-04T07:25:11.277Z,3.75
2022-09-04T07:28:15.113Z,4.50
2022-09-04T07:31:03.696Z,3.80
2022-09-04T07:33:50.395Z,3.30
2022-09-04T07:36:29.562Z,3.63
2022-09-04T07:39:12.516Z,3.67
2022-09-04T07:41:47.297Z,3.20
2022-09-04T07:44:23.469Z,3.25
2022-09-04T07:47:14.210Z,3.55
2022-09-04T07:49:44.633Z,3.80
2022-09-04T07:52:18.718Z,3.53
2022-09-04T07:55:07.445Z,3.38
2022-09-04T07:57:46.852Z,2.97
2022-09-04T08:00:22.871Z,3.22
2022-09-04T08:02:56.584Z,3.80
2022-09-04T08:05:28.002Z,3.33
2022-09-04T08:08:13.997Z,3.33
2022-09-04T08:10:54.706Z,3.50
2022-09-04T08:13:47.286Z,3.22
2022-09-04T08:16:57.656Z,3.65
2022-09-04T08:19:28.095Z,4.50
2022-09-04T08:21:57.074Z,4.28
2022-09-04T08:24:43.025Z,4.70
2022-09-04T08:27:44.624Z,4.80
2022-09-04T08:30:14.739Z,4.07
2022-09-04T08:32:50.822Z,4.85
2022-09-04T08:35:29.983Z,4.95
2022-09-04T08:38:04.930Z,4.80
2022-09-04T08:41:03.123Z,4.53
2022-09-04T08:43:36.537Z,4.70
2022-09-04T08:46:23.175Z,4.47
2022-09-04T08:49:15.150Z,4.22
2022-09-04T08:52:01.140Z,5.28
2022-09-04T08:54:56.935Z,5.22
2022-09-04T08:57:44.977Z,6.20
2022-09-04T09:00:26.873Z,5.07
2022-09-04T09:03:19.073Z,5.57
2022-09-04T09:06:21.496Z,5.32
2022-09-04T09:08:48.839Z,5.90
2022-09-04T09:11:22.084Z,5.40
2022-09-04T09:14:43.814Z,6.05
2022-09-04T09:17:16.952Z,6.05
2022-09-04T09:22:56.947Z,5.45
2022-09-04T09:25:49.399Z,7.43
2022-09-04T09:31:18.366Z,7.32
2022-09-04T09:34:05.325Z,7.55
2022-09-04T09:37:04.916Z,8.73
2022-09-04T09:40:02.742Z,6.93
2022-09-04T09:42:49.446Z,7.60
2022-09-04T09:45:57.797Z,8.10
2022-09-04T09:48:37.083Z,7.35
2022-09-04T09:51:23.300Z,7.30
2022-09-04T09:54:12.027Z,9.07
2022-09-04T09:57:00.409Z,7.75
2022-09-04T09:59:40.066Z,7.25
2022-09-04T10:02:30.319Z,7.53
2022-09-04T10:05:19.365Z,6.93
2022-09-04T10:08:15.082Z,6.55
2022-09-04T10:11:06.747Z,6.22
2022-09-04T10:13:34.156Z,6.10
2022-09-04T10:16:19.776Z,6.10
2022-09-04T10:19:18.064Z,7.53
2022-09-04T10:22:08.923Z,6.20
2022-09-04T10:25:09.654Z,5.85
2022-09-04T10:28:07.919Z,5.90
2022-09-04T10:31:03.660Z,6.63
2022-09-04T10:33:57.124Z,6.20
2022-09-04T10:36:45.745Z,6.72
2022-09-04T10:40:02.908Z,6.55
2022-09-04T10:42:53.005Z,6.18
2022-09-04T10:45:45.186Z,5.78
2022-09-04T10:48:36.950Z,6.78
2022-09-04T10:51:23.276Z,5.82
2022-09-04T10:54:14.815Z,5.35
2022-09-04T10:57:03.800Z,6.70
2022-09-04T10:59:31.203Z,6.35
2022-09-04T11:02:33.147Z,5.88
2022-09-04T11:05:19.461Z,5.72
2022-09-04T11:07:52.741Z,5.90
2022-09-04T11:10:45.183Z,6.15
2022-09-04T11:16:25.298Z,7.22
2022-09-04T11:19:11.198Z,5.45
2022-09-04T11:21:50.257Z,6.38
2022-09-04T11:24:37.262Z,6.32
2022-09-04T11:27:23.394Z,6.80
2022-09-04T11:30:12.128Z,5.95
2022-09-04T11:32:52.444Z,6.80
2022-09-04T11:35:50.554Z,6.85
2022-09-04T11:38:24.326Z,6.30
2022-09-04T11:41:22.394Z,5.22
2022-09-04T11:43:58.784Z,5.63
2022-09-04T11:46:29.252Z,6.38
2022-09-04T11:49:09.438Z,6.40
2022-09-04T11:52:21.013Z,6.30
2022-09-04T11:55:03.193Z,5.93
2022-09-04T11:57:55.044Z,4.72
2022-09-04T12:00:22.472Z,5.13
2022-09-04T12:02:58.506Z,5.50
2022-09-04T12:06:09.426Z,5.75
2022-09-04T12:09:20.261Z,5.25
2022-09-04T12:12:21.184Z,5.50
2022-09-04T12:14:51.351Z,5.95
2022-09-04T12:17:34.593Z,6.53
2022-09-04T12:20:15.945Z,5.32
2022-09-04T12:22:58.499Z,6.07
2022-09-04T12:25:39.986Z,5.82
2022-09-04T12:28:38.054Z,5.80
2022-09-04T12:31:05.533Z,5.25
2022-09-04T12:33:50.233Z,5.43
2022-09-04T12:36:23.800Z,4.88
2022-09-04T12:39:43.038Z,4.93
2022-09-04T12:42:49.465Z,4.97
2022-09-04T12:45:36.600Z,5.00
2022-09-04T12:48:33.210Z,5.20
2022-09-04T12:51:24.753Z,5.38
2022-09-04T12:54:10.849Z,5.63
2022-09-04T12:56:49.038Z,5.90
2022-09-04T12:59:38.780Z,5.13
2022-09-04T13:02:30.203Z,4.68
2022-09-04T13:05:02.494Z,5.17
2022-09-04T13:10:21.266Z,5.22
2022-09-04T13:12:48.630Z,4.65
2022-09-04T13:15:45.468Z,5.10
2022-09-04T13:18:18.802Z,5.03
2022-09-04T13:20:52.613Z,5.10
2022-09-04T13:23:31.986Z,5.32
2022-09-04T13:26:38.399Z,5.90
2022-09-04T13:29:36.226Z,5.00
2022-09-04T13:32:52.817Z,5.35
2022-09-04T13:35:59.142Z,6.15
2022-09-04T13:38:45.415Z,4.47
2022-09-04T13:41:34.895Z,4.43
2022-09-04T13:44:38.255Z,4.80
2022-09-04T13:47:20.995Z,5.03
2022-09-04T13:50:12.032Z,4.57
2022-09-04T13:52:48.161Z,4.90
2022-09-04T13:55:24.119Z,4.22
2022-09-04T13:58:15.197Z,4.40
2022-09-04T14:00:49.420Z,4.97
2022-09-04T14:03:44.296Z,4.53
2022-09-04T14:06:15.583Z,4.60
2022-09-04T14:08:45.802Z,5.07
2022-09-04T14:12:03.884Z,4.40
2022-09-04T14:14:59.655Z,4.10
2022-09-04T14:17:42.418Z,4.00
2022-09-04T14:20:22.668Z,4.57
2022-09-04T14:23:10.859Z,4.63
2022-09-04T14:25:51.040Z,4.72
2022-09-04T14:28:27.677Z,4.80
2022-09-04T14:31:10.705Z,5.97
2022-09-04T14:33:44.319Z,4.63
2022-09-04T14:36:40.616Z,4.75
2022-09-04T14:39:26.137Z,5.00
2022-09-04T14:42:46.662Z,4.95
2022-09-04T14:45:30.091Z,4.80
2022-09-04T14:48:03.689Z,5.53
2022-09-04T14:50:43.360Z,5.20
2022-09-04T14:53:11.761Z,4.88
2022-09-04T14:55:42.398Z,4.75
2022-09-04T14:58:23.382Z,4.90
2022-09-04T15:01:21.446Z,5.28
2022-09-04T15:04:06.891Z,5.40
2022-09-04T15:07:10.754Z,5.30
2022-09-04T15:09:48.171Z,4.72
2022-09-04T15:12:32.476Z,5.53
2022-09-04T15:15:21.706Z,5.00
2022-09-04T15:18:06.554Z,4.90
2022-09-04T15:20:40.452Z,4.90
2022-09-04T15:23:22.253Z,4.75
2022-09-04T15:26:05.149Z,5.70
2022-09-04T15:28:42.412Z,5.10
2022-09-04T15:31:16.332Z,5.22
2022-09-04T15:33:47.682Z,4.45
2022-09-04T15:36:23.619Z,4.53
2022-09-04T15:39:15.783Z,4.28
2022-09-04T15:41:50.058Z,4.30
2022-09-04T15:44:55.716Z,4.50
2022-09-04T15:47:44.142Z,4.53
2022-09-04T15:50:25.115Z,4.40
2022-09-04T15:53:00.140Z,4.40
2022-09-04T15:55:35.729Z,4.40
2022-09-04T15:58:05.233Z,4.35
2022-09-04T16:00:42.859Z,4.20
2022-09-04T16:03:29.177Z,3.97
2022-09-04T16:06:22.196Z,4.28
2022-09-04T16:09:15.688Z,4.40
2022-09-04T16:11:48.989Z,4.20
2022-09-04T16:14:27.840Z,4.60
2022-09-04T16:17:01.083Z,4.47
2022-09-04T16:19:57.715Z,4.22
2022-09-04T16:22:44.525Z,4.38
2022-09-04T16:25:24.268Z,4.85
2022-09-04T16:27:57.774Z,4.72
2022-09-04T16:30:34.451Z,4.82
2022-09-04T16:33:03.825Z,5.07
2022-09-04T16:35:40.272Z,4.75
2022-09-04T16:38:23.458Z,4.00
2022-09-04T16:40:57.523Z,4.55
2022-09-04T16:43:36.592Z,4.80
2022-09-04T16:46:29.623Z,5.22
2022-09-04T16:49:34.403Z,4.60
2022-09-04T16:52:21.221Z,4.80
2022-09-04T16:54:56.636Z,4.88
2022-09-04T16:57:43.506Z,4.63
2022-09-04T17:00:14.269Z,5.10
2022-09-04T17:03:07.912Z,5.00
2022-09-04T17:06:03.066Z,4.68
2022-09-04T17:08:33.075Z,5.20
2022-09-04T17:11:15.597Z,4.68
2022-09-04T17:14:09.831Z,5.00
2022-09-04T17:16:52.590Z,4.70
2022-09-04T17:19:21.901Z,4.70
2022-09-04T17:29:04.695Z,4.78
2022-09-04T17:29:13.981Z,4.60
2022-09-04T17:29:17.341Z,4.88
2022-09-04T17:33:55.345Z,4.75
2022-09-04T17:40:44.351Z,5.10
2022-09-04T17:40:48.711Z,5.40
2022-09-04T17:44:27.175Z,4.90
2022-09-04T17:47:22.493Z,5.13
2022-09-04T17:49:52.478Z,5.28
2022-09-04T17:52:27.036Z,5.07
2022-09-04T17:55:13.683Z,5.03
2022-09-04T17:57:54.326Z,5.97
2022-09-04T18:00:28.161Z,5.50
2022-09-04T18:02:59.715Z,5.60
2022-09-04T18:05:43.472Z,5.57
2022-09-04T18:08:32.752Z,5.47
2022-09-04T18:11:27.273Z,5.28
2022-09-04T18:14:01.253Z,5.55
2022-09-04T18:16:42.357Z,5.43
2022-09-04T18:19:46.694Z,6.20
2022-09-04T18:22:33.164Z,6.20
2022-09-04T18:25:15.930Z,6.10
2022-09-04T18:28:20.032Z,6.32
2022-09-04T18:37:24.735Z,6.10
2022-09-04T18:37:25.659Z,5.47
2022-09-04T18:39:57.557Z,6.45
2022-09-04T18:49:10.326Z,6.22
2022-09-04T18:50:31.683Z,5.65
2022-09-04T18:50:44.416Z,6.97
2022-09-04T18:51:38.319Z,6.63
2022-09-04T18:54:11.683Z,6.55
2022-09-04T18:56:49.141Z,6.00
2022-09-04T18:59:34.669Z,6.80
2022-09-04T19:02:11.528Z,6.13
2022-09-04T19:05:08.777Z,5.28
2022-09-04T19:07:59.662Z,5.00
2022-09-04T19:10:33.839Z,5.15
2022-09-04T19:13:08.558Z,4.70
2022-09-04T19:15:45.705Z,5.50
2022-09-04T19:18:17.241Z,4.90
2022-09-04T19:20:49.276Z,4.93
2022-09-04T19:23:29.962Z,4.30
2022-09-04T19:26:02.131Z,5.10
2022-09-04T19:31:29.942Z,5.10
2022-09-04T19:34:21.131Z,4.85
2022-09-04T19:36:54.827Z,5.10
2022-09-04T19:45:59.171Z,5.20
2022-09-04T19:46:00.453Z,4.82
2022-09-04T19:46:11.431Z,4.70
2022-09-04T19:50:46.196Z,4.53
2022-09-04T19:53:22.843Z,4.70
2022-09-04T19:55:23.746Z,4.70
2022-09-04T19:58:06.290Z,4.82
2022-09-04T20:00:43.808Z,4.95
2022-09-04T20:03:29.629Z,6.05
2022-09-04T20:06:27.070Z,4.53
2022-09-04T20:09:21.630Z,5.00
2022-09-04T20:12:04.014Z,5.03
2022-09-04T20:17:27.362Z,5.40
2022-09-04T20:20:00.515Z,5.55
2022-09-04T20:22:56.288Z,5.30
2022-09-04T20:25:39.091Z,5.18
2022-09-04T20:28:29.210Z,5.68
2022-09-04T20:31:36.080Z,5.70
2022-09-04T20:34:19.336Z,5.38
2022-09-04T20:36:52.140Z,5.57
2022-09-04T20:39:28.348Z,5.90
2022-09-04T20:42:38.492Z,6.10
2022-09-04T20:48:24.380Z,5.45
2022-09-04T20:52:50.936Z,5.05
2022-09-04T20:52:53.681Z,5.38
2022-09-04T20:54:28.608Z,5.68
2022-09-04T21:00:14.718Z,6.93
2022-09-04T21:03:09.373Z,5.90
2022-09-04T21:03:29.014Z,7.20
2022-09-04T21:06:15.755Z,7.65
2022-09-04T21:09:14.175Z,9.45
2022-09-04T21:11:47.283Z,10.00
2022-09-04T21:14:44.729Z,10.75
2022-09-04T21:17:35.184Z,22.92
2022-09-04T21:20:10.886Z,28.10
2022-09-04T21:23:09.099Z,22.13
2022-09-04T21:25:39.443Z,17.63
2022-09-04T21:28:29.090Z,13.35
2022-09-04T21:31:36.364Z,8.80
2022-09-04T21:34:44.073Z,8.15
2022-09-04T21:37:40.280Z,8.70
2022-09-04T21:40:49.668Z,8.40
2022-09-04T21:43:36.575Z,8.68
2022-09-04T21:46:19.014Z,8.50
2022-09-04T21:49:18.022Z,9.40
2022-09-04T21:52:12.939Z,8.80
2022-09-04T21:58:04.959Z,8.50
2022-09-04T22:02:35.010Z,8.48
2022-09-04T22:02:39.685Z,9.23
2022-09-04T22:04:13.437Z,8.52
2022-09-04T22:13:28.522Z,7.72
2022-09-04T22:13:29.016Z,8.13
2022-09-04T22:13:42.493Z,7.10
2022-09-04T22:16:44.652Z,7.38
2022-09-04T22:19:32.180Z,7.47
2022-09-04T22:22:20.519Z,7.30
2022-09-04T22:25:06.528Z,7.10
2022-09-04T22:28:15.478Z,7.47
2022-09-04T22:31:01.204Z,6.70
2022-09-04T22:34:15.405Z,6.18
2022-09-04T22:37:02.647Z,6.28
2022-09-04T22:39:35.640Z,6.03
2022-09-04T22:42:13.709Z,8.18
2022-09-04T22:45:10.050Z,10.55
2022-09-04T22:48:08.639Z,11.13
2022-09-04T22:51:00.785Z,12.98
2022-09-04T22:53:34.281Z,12.15
2022-09-04T22:56:22.903Z,9.82
2022-09-04T22:59:26.685Z,9.02
2022-09-04T23:03:04.065Z,7.22
2022-09-04T23:05:31.072Z,6.28
2022-09-04T23:13:43.023Z,5.60
2022-09-04T23:14:02.004Z,5.65
2022-09-04T23:14:12.269Z,5.97
2022-09-04T23:16:52.168Z,5.40
2022-09-04T23:20:46.817Z,5.32
2022-09-04T23:26:44.828Z,5.10
2022-09-04T23:26:53.128Z,5.13
2022-09-04T23:29:19.394Z,4.80
2022-09-04T23:32:01.407Z,5.30
2022-09-04T23:34:54.702Z,4.88
2022-09-04T23:38:03.990Z,5.38
2022-09-04T23:40:37.292Z,4.90
2022-09-04T23:43:07.942Z,4.75
2022-09-04T23:46:08.255Z,4.70
2022-09-04T23:48:41.592Z,5.18
2022-09-04T23:51:23.990Z,4.88
2022-09-04T23:56:40.023Z,4.47
2022-09-04T23:59:37.763Z,4.50
